createdAt,value
2023-04-13T00:01:46.006Z,8.60
2023-04-13T00:04:14.524Z,9.30
2023-04-13T00:06:42.846Z,8.90
2023-04-13T00:09:11.201Z,8.60
2023-04-13T00:11:40.210Z,8.70
2023-04-13T00:14:08.500Z,9.80
2023-04-13T00:16:38.175Z,8.10
2023-04-13T00:19:06.786Z,8.90
2023-04-13T00:21:35.066Z,9.30
2023-04-13T00:24:08.459Z,8.70
2023-04-13T00:26:38.762Z,8.30
2023-04-13T00:29:07.578Z,8.20
2023-04-13T00:31:35.712Z,9.10
2023-04-13T00:34:04.574Z,8.20
2023-04-13T00:36:33.173Z,8.40
2023-04-13T00:39:01.118Z,9.30
2023-04-13T00:41:32.944Z,8.10
2023-04-13T00:44:00.995Z,8.60
2023-04-13T00:46:29.730Z,8.70
2023-04-13T00:49:03.117Z,9.10
2023-04-13T00:51:33.142Z,8.80
2023-04-13T00:54:01.061Z,8.10
2023-04-13T00:56:31.690Z,7.70
2023-04-13T00:58:59.687Z,8.10
2023-04-13T01:01:30.364Z,8.20
2023-04-13T01:03:59.517Z,8.60
2023-04-13T01:06:31.978Z,8.70
2023-04-13T01:09:08.707Z,8.10
2023-04-13T01:11:39.702Z,8.80
2023-04-13T01:14:13.212Z,8.10
2023-04-13T01:16:50.399Z,8.90
2023-04-13T01:19:30.983Z,9.00
2023-04-13T01:21:59.749Z,9.30
2023-04-13T01:24:31.101Z,9.80
2023-04-13T01:27:20.682Z,9.90
2023-04-13T01:29:49.489Z,7.30
2023-04-13T01:32:17.885Z,9.70
2023-04-13T01:34:46.525Z,9.90
2023-04-13T01:37:14.779Z,10.30
2023-04-13T01:39:43.255Z,9.30
2023-04-13T01:42:24.216Z,9.70
2023-04-13T01:44:54.475Z,8.00
2023-04-13T01:47:22.825Z,9.70
2023-04-13T01:50:09.397Z,9.30
2023-04-13T01:52:49.395Z,7.20
2023-04-13T01:55:18.222Z,8.90
2023-04-13T01:57:54.934Z,9.50
2023-04-13T02:00:31.843Z,8.40
2023-04-13T02:03:00.684Z,9.80
2023-04-13T02:05:29.544Z,9.40
2023-04-13T02:07:57.935Z,11.00
2023-04-13T02:10:26.680Z,10.30
2023-04-13T02:12:55.525Z,9.60
2023-04-13T02:15:24.187Z,9.20
2023-04-13T02:17:53.225Z,7.60
2023-04-13T02:20:21.763Z,9.60
2023-04-13T02:22:55.149Z,8.30
2023-04-13T02:25:28.186Z,8.20
2023-04-13T02:27:57.225Z,9.60
2023-04-13T02:30:26.048Z,9.80
2023-04-13T02:33:00.549Z,9.90
2023-04-13T02:35:29.002Z,12.30
2023-04-13T02:37:58.216Z,14.30
2023-04-13T02:40:28.222Z,15.50
2023-04-13T02:43:00.017Z,15.00
2023-04-13T02:45:29.505Z,15.40
2023-04-13T02:48:06.334Z,14.70
2023-04-13T02:50:35.859Z,13.20
2023-04-13T02:53:08.955Z,11.20
2023-04-13T02:55:43.358Z,10.50
2023-04-13T02:58:13.589Z,10.60
2023-04-13T03:00:42.542Z,9.60
2023-04-13T03:03:20.465Z,11.40
2023-04-13T03:05:51.470Z,8.70
2023-04-13T03:08:23.852Z,10.70
2023-04-13T03:11:00.878Z,12.50
2023-04-13T03:13:30.807Z,11.60
2023-04-13T03:16:00.537Z,12.30
2023-04-13T03:18:29.204Z,13.00
2023-04-13T03:20:57.143Z,12.30
2023-04-13T03:25:58.655Z,11.50
2023-04-13T03:28:27.294Z,11.50
2023-04-13T03:30:55.628Z,10.50
2023-04-13T03:33:24.990Z,9.20
2023-04-13T03:35:53.090Z,9.10
2023-04-13T03:38:28.007Z,9.90
2023-04-13T03:40:56.295Z,10.30
2023-04-13T03:43:24.989Z,9.60
2023-04-13T03:46:01.810Z,9.40
2023-04-13T03:48:30.140Z,9.10
2023-04-13T03:50:58.614Z,9.60
2023-04-13T03:53:31.279Z,9.10
2023-04-13T03:55:59.817Z,9.40
2023-04-13T03:58:28.947Z,9.20
2023-04-13T04:00:57.849Z,9.80
2023-04-13T04:03:36.021Z,8.70
2023-04-13T04:06:08.463Z,9.10
2023-04-13T04:08:39.976Z,7.80
2023-04-13T04:11:13.728Z,9.20
2023-04-13T04:13:41.892Z,9.20
2023-04-13T04:16:19.738Z,10.10
2023-04-13T04:18:53.295Z,10.70
2023-04-13T04:21:21.862Z,11.70
2023-04-13T04:23:53.007Z,12.30
2023-04-13T04:26:25.803Z,14.20
2023-04-13T04:29:02.805Z,15.30
2023-04-13T04:31:36.672Z,21.30
2023-04-13T04:34:06.791Z,22.40
2023-04-13T04:36:36.436Z,19.20
2023-04-13T04:39:06.339Z,20.80
2023-04-13T04:41:39.831Z,15.00
2023-04-13T04:44:09.115Z,13.10
2023-04-13T04:46:42.097Z,11.70
2023-04-13T04:49:13.243Z,10.70
2023-04-13T04:51:41.894Z,12.20
2023-04-13T04:54:10.615Z,10.10
2023-04-13T04:56:38.932Z,9.20
2023-04-13T04:59:07.156Z,8.70
2023-04-13T05:01:52.444Z,8.40
2023-04-13T05:04:20.710Z,8.80
2023-04-13T05:06:49.290Z,9.40
2023-04-13T05:09:22.862Z,8.60
2023-04-13T05:11:56.416Z,9.30
2023-04-13T05:14:24.380Z,10.20
2023-04-13T05:16:54.632Z,9.10
2023-04-13T05:19:29.744Z,8.70
2023-04-13T05:22:13.079Z,9.50
2023-04-13T05:24:46.478Z,8.70
2023-04-13T05:27:16.076Z,8.80
2023-04-13T05:29:47.894Z,9.00
2023-04-13T05:32:20.987Z,8.50
2023-04-13T05:34:51.096Z,8.20
2023-04-13T05:37:23.748Z,7.70
2023-04-13T05:39:52.153Z,8.10
2023-04-13T05:42:24.130Z,7.40
2023-04-13T05:44:53.074Z,6.80
2023-04-13T05:47:22.505Z,7.70
2023-04-13T05:49:52.357Z,7.60
2023-04-13T05:54:50.417Z,7.30
2023-04-13T05:57:23.086Z,7.70
2023-04-13T05:59:53.453Z,7.20
2023-04-13T06:02:26.564Z,7.90
2023-04-13T06:04:56.521Z,7.40
2023-04-13T06:07:26.071Z,7.50
2023-04-13T06:09:54.417Z,7.40
2023-04-13T06:12:27.994Z,7.10
2023-04-13T06:14:56.010Z,7.60
2023-04-13T06:17:24.669Z,7.50
2023-04-13T06:19:54.531Z,7.70
2023-04-13T06:22:22.829Z,6.80
2023-04-13T06:24:51.782Z,7.30
2023-04-13T06:27:22.686Z,7.40
2023-04-13T06:29:52.444Z,6.90
2023-04-13T06:32:21.097Z,7.60
2023-04-13T06:34:49.321Z,6.70
2023-04-13T06:37:19.315Z,7.30
2023-04-13T06:39:49.890Z,6.30
2023-04-13T06:42:21.268Z,6.10
2023-04-13T06:45:23.525Z,6.90
2023-04-13T06:47:52.578Z,6.80
2023-04-13T06:50:21.012Z,6.50
2023-04-13T06:52:49.201Z,6.70
2023-04-13T06:55:18.073Z,6.50
2023-04-13T06:57:46.942Z,6.70
2023-04-13T07:00:28.917Z,6.40
2023-04-13T07:02:58.812Z,6.50
2023-04-13T07:05:27.087Z,7.00
2023-04-13T07:07:58.433Z,6.10
2023-04-13T07:10:27.467Z,6.00
2023-04-13T07:12:56.369Z,5.50
2023-04-13T07:15:25.696Z,6.10
2023-04-13T07:17:56.018Z,6.40
2023-04-13T07:20:24.182Z,6.00
2023-04-13T07:22:52.972Z,5.70
2023-04-13T07:25:21.850Z,5.60
2023-04-13T07:27:51.025Z,5.90
2023-04-13T07:30:19.483Z,5.20
2023-04-13T07:32:48.972Z,5.80
2023-04-13T07:35:17.025Z,6.10
2023-04-13T07:37:46.743Z,5.50
2023-04-13T07:40:16.059Z,6.50
2023-04-13T07:42:47.288Z,5.60
2023-04-13T07:45:15.955Z,5.80
2023-04-13T07:47:47.266Z,6.00
2023-04-13T07:50:16.665Z,6.00
2023-04-13T07:52:45.103Z,5.70
2023-04-13T07:55:13.532Z,6.30
2023-04-13T07:57:50.051Z,6.00
2023-04-13T08:00:20.685Z,6.40
2023-04-13T08:02:49.260Z,6.10
2023-04-13T08:05:24.081Z,5.50
2023-04-13T08:07:53.801Z,5.70
2023-04-13T08:10:22.422Z,5.20
2023-04-13T08:12:50.375Z,5.60
2023-04-13T08:15:19.804Z,6.20
2023-04-13T08:17:48.907Z,6.80
2023-04-13T08:20:17.075Z,5.60
2023-04-13T08:22:47.803Z,6.00
2023-04-13T08:25:17.569Z,6.00
2023-04-13T08:27:45.838Z,6.00
2023-04-13T08:30:14.858Z,7.10
2023-04-13T08:33:01.778Z,7.70
2023-04-13T08:35:30.304Z,7.50
2023-04-13T08:38:02.698Z,7.40
2023-04-13T08:40:37.529Z,7.10
2023-04-13T08:43:07.359Z,7.00
2023-04-13T08:45:41.682Z,7.30
2023-04-13T08:48:12.241Z,7.00
2023-04-13T08:50:40.943Z,6.50
2023-04-13T08:53:10.390Z,6.20
2023-04-13T08:55:43.568Z,6.00
2023-04-13T08:58:12.966Z,6.30
2023-04-13T09:00:44.403Z,7.10
2023-04-13T09:03:14.613Z,7.10
2023-04-13T09:05:46.469Z,7.80
2023-04-13T09:08:17.069Z,10.10
2023-04-13T09:10:48.316Z,8.00
2023-04-13T09:13:16.770Z,8.50
2023-04-13T09:15:47.472Z,7.80
2023-04-13T09:18:51.583Z,6.10
2023-04-13T09:24:02.702Z,6.10
2023-04-13T09:26:48.196Z,5.70
2023-04-13T09:29:21.900Z,6.20
2023-04-13T09:31:50.744Z,5.30
2023-04-13T09:34:28.752Z,5.00
2023-04-13T09:37:01.024Z,4.70
2023-04-13T09:39:30.227Z,5.40
2023-04-13T09:41:58.630Z,5.10
2023-04-13T09:44:36.191Z,4.70
2023-04-13T09:47:06.984Z,4.20
2023-04-13T09:49:42.311Z,4.60
2023-04-13T09:52:23.380Z,5.20
2023-04-13T09:54:57.221Z,5.40
2023-04-13T09:57:30.791Z,5.60
2023-04-13T10:00:07.172Z,5.60
2023-04-13T10:02:43.007Z,5.10
2023-04-13T10:05:12.555Z,5.00
2023-04-13T10:07:45.535Z,5.40
2023-04-13T10:10:15.436Z,5.60
2023-04-13T10:12:49.059Z,5.80
2023-04-13T10:15:22.766Z,5.40
2023-04-13T10:18:06.975Z,5.10
2023-04-13T10:20:36.604Z,5.40
2023-04-13T10:23:04.651Z,6.10
2023-04-13T10:25:34.589Z,5.50
2023-04-13T10:28:04.794Z,4.90
2023-04-13T10:30:33.289Z,5.30
2023-04-13T10:33:09.440Z,5.90
2023-04-13T10:35:38.198Z,6.00
2023-04-13T10:38:09.230Z,5.80
2023-04-13T10:40:47.884Z,5.70
2023-04-13T10:43:29.074Z,5.50
2023-04-13T10:46:10.846Z,6.00
2023-04-13T10:48:42.264Z,6.10
2023-04-13T10:51:13.170Z,6.20
2023-04-13T10:53:42.307Z,6.50
2023-04-13T10:56:17.147Z,6.20
2023-04-13T10:58:51.994Z,5.80
2023-04-13T11:01:20.843Z,5.40
2023-04-13T11:04:03.168Z,5.90
2023-04-13T11:06:40.069Z,6.40
2023-04-13T11:09:13.099Z,6.50
2023-04-13T11:11:42.668Z,6.30
2023-04-13T11:14:21.415Z,6.00
2023-04-13T11:16:49.558Z,6.30
2023-04-13T11:19:19.055Z,6.10
2023-04-13T11:21:54.090Z,6.70
2023-04-13T11:24:29.549Z,5.80
2023-04-13T11:26:57.820Z,6.70
2023-04-13T11:29:27.412Z,6.10
2023-04-13T11:31:59.238Z,5.60
2023-04-13T11:34:30.664Z,6.40
2023-04-13T11:37:00.647Z,6.40
2023-04-13T11:39:29.372Z,6.60
2023-04-13T11:41:57.444Z,6.00
2023-04-13T11:44:26.215Z,6.30
2023-04-13T11:46:54.592Z,6.40
2023-04-13T11:49:23.087Z,6.50
2023-04-13T11:51:52.173Z,6.80
2023-04-13T11:54:20.268Z,6.20
2023-04-13T11:56:49.148Z,6.70
2023-04-13T11:59:24.851Z,6.30
2023-04-13T12:01:58.284Z,6.60
2023-04-13T12:04:39.086Z,6.70
2023-04-13T12:07:12.656Z,6.70
2023-04-13T12:15:15.471Z,5.80
2023-04-13T12:17:59.942Z,6.90
2023-04-13T12:20:43.971Z,6.40
2023-04-13T12:23:22.305Z,7.20
2023-04-13T12:26:31.218Z,6.70
2023-04-13T12:28:57.523Z,6.50
2023-04-13T12:31:36.805Z,6.00
2023-04-13T12:34:07.834Z,6.60
2023-04-13T12:36:36.964Z,5.70
2023-04-13T12:39:06.872Z,6.70
2023-04-13T12:41:35.310Z,6.10
2023-04-13T12:44:03.387Z,6.90
2023-04-13T12:46:32.510Z,6.60
2023-04-13T12:49:00.721Z,6.90
2023-04-13T12:51:29.265Z,7.10
2023-04-13T12:53:57.228Z,6.00
2023-04-13T12:56:25.233Z,6.20
2023-04-13T12:58:56.300Z,6.60
2023-04-13T13:01:24.640Z,7.20
2023-04-13T13:03:54.002Z,5.80
2023-04-13T13:06:22.525Z,6.90
2023-04-13T13:08:51.254Z,6.70
2023-04-13T13:11:19.160Z,6.40
2023-04-13T13:13:48.790Z,6.90
2023-04-13T13:16:17.485Z,6.70
2023-04-13T13:19:00.958Z,5.90
2023-04-13T13:21:29.603Z,7.20
2023-04-13T13:23:57.925Z,6.90
2023-04-13T13:26:30.577Z,6.50
2023-04-13T13:29:09.630Z,5.90
2023-04-13T13:31:40.302Z,6.20
2023-04-13T13:34:11.792Z,6.20
2023-04-13T13:36:39.717Z,6.30
2023-04-13T13:39:10.188Z,6.90
2023-04-13T13:41:38.666Z,6.20
2023-04-13T13:44:08.605Z,6.10
2023-04-13T13:46:37.303Z,5.90
2023-04-13T13:49:07.990Z,6.20
2023-04-13T13:51:57.352Z,6.80
2023-04-13T13:54:27.055Z,6.40
2023-04-13T13:56:54.999Z,6.20
2023-04-13T13:59:22.946Z,5.70
2023-04-13T14:01:51.566Z,6.00
2023-04-13T14:04:20.233Z,6.40
2023-04-13T14:06:53.305Z,6.20
2023-04-13T14:09:21.758Z,6.70
2023-04-13T14:11:50.866Z,6.10
2023-04-13T14:14:22.253Z,5.80
2023-04-13T14:16:53.889Z,5.70
2023-04-13T14:19:22.273Z,6.10
2023-04-13T14:21:53.417Z,5.80
2023-04-13T14:24:26.492Z,6.50
2023-04-13T14:26:56.225Z,6.50
2023-04-13T14:29:24.244Z,6.00
2023-04-13T14:31:52.952Z,5.90
2023-04-13T14:34:20.955Z,6.80
2023-04-13T14:36:51.611Z,7.50
2023-04-13T14:39:25.976Z,7.20
2023-04-13T14:44:24.763Z,8.10
2023-04-13T14:46:53.625Z,7.70
2023-04-13T14:49:21.877Z,6.90
2023-04-13T14:51:50.185Z,7.70
2023-04-13T14:54:22.981Z,8.40
2023-04-13T14:56:51.475Z,8.20
2023-04-13T14:59:19.934Z,8.10
2023-04-13T15:01:50.965Z,8.10
2023-04-13T15:04:19.993Z,8.50
2023-04-13T15:06:49.451Z,8.60
2023-04-13T15:09:18.248Z,8.20
2023-04-13T15:11:46.594Z,9.90
2023-04-13T15:14:18.296Z,8.10
2023-04-13T15:16:46.501Z,8.20
2023-04-13T15:19:14.522Z,8.60
2023-04-13T15:21:46.420Z,8.20
2023-04-13T15:24:15.797Z,8.70
2023-04-13T15:26:43.786Z,8.30
2023-04-13T15:29:12.906Z,8.80
2023-04-13T15:31:41.308Z,8.70
2023-04-13T15:34:09.261Z,10.10
2023-04-13T15:36:37.827Z,9.40
2023-04-13T15:39:06.553Z,9.10
2023-04-13T15:41:34.511Z,8.90
2023-04-13T15:44:03.435Z,8.20
2023-04-13T15:46:32.508Z,7.20
2023-04-13T15:49:01.455Z,7.20
2023-04-13T15:51:32.685Z,7.70
2023-04-13T15:54:00.621Z,6.50
2023-04-13T15:56:29.158Z,8.50
2023-04-13T15:58:57.422Z,7.10
2023-04-13T16:01:26.741Z,7.60
2023-04-13T16:03:56.384Z,7.50
2023-04-13T16:06:24.553Z,7.40
2023-04-13T16:09:02.119Z,6.60
2023-04-13T16:11:32.331Z,6.70
2023-04-13T16:14:07.488Z,6.90
2023-04-13T16:16:47.215Z,7.60
2023-04-13T16:19:18.404Z,6.70
2023-04-13T16:21:47.584Z,6.30
2023-04-13T16:24:17.255Z,6.70
2023-04-13T16:26:46.102Z,7.20
2023-04-13T16:29:14.028Z,7.40
2023-04-13T16:31:44.979Z,7.10
2023-04-13T16:34:25.508Z,5.90
2023-04-13T16:36:54.797Z,7.00
2023-04-13T16:39:24.054Z,7.70
2023-04-13T16:41:52.169Z,6.90
2023-04-13T16:44:20.196Z,7.40
2023-04-13T16:46:50.088Z,7.00
2023-04-13T16:49:18.508Z,8.00
2023-04-13T16:51:48.414Z,8.90
2023-04-13T16:54:17.919Z,7.30
2023-04-13T16:56:48.472Z,8.00
2023-04-13T16:59:16.744Z,8.60
2023-04-13T17:01:47.659Z,8.00
2023-04-13T17:04:18.905Z,9.00
2023-04-13T17:06:47.485Z,7.80
2023-04-13T17:09:15.621Z,8.40
2023-04-13T17:11:45.835Z,9.30
2023-04-13T17:14:14.038Z,9.40
2023-04-13T17:16:46.139Z,7.30
2023-04-13T17:19:15.632Z,9.20
2023-04-13T17:21:43.962Z,8.30
2023-04-13T17:24:13.417Z,8.30
2023-04-13T17:26:42.787Z,7.90
2023-04-13T17:29:10.913Z,6.90
2023-04-13T17:31:38.945Z,7.50
2023-04-13T17:34:07.304Z,6.60
2023-04-13T17:36:35.337Z,6.70
2023-04-13T17:39:05.773Z,7.30
2023-04-13T17:41:35.841Z,6.90
2023-04-13T17:44:03.962Z,6.90
2023-04-13T17:46:31.970Z,6.70
2023-04-13T17:49:03.151Z,7.10
2023-04-13T17:51:32.503Z,7.10
2023-04-13T17:54:01.089Z,7.90
2023-04-13T17:56:31.759Z,11.50
2023-04-13T17:59:00.788Z,16.40
2023-04-13T18:01:29.510Z,7.70
2023-04-13T18:03:59.588Z,6.90
2023-04-13T18:06:28.043Z,7.10
2023-04-13T18:08:56.321Z,7.50
2023-04-13T18:11:24.736Z,7.70
2023-04-13T18:13:54.027Z,8.30
2023-04-13T18:16:22.552Z,8.60
2023-04-13T18:18:51.442Z,7.80
2023-04-13T18:21:19.732Z,7.90
2023-04-13T18:23:48.130Z,8.80
2023-04-13T18:26:16.567Z,7.70
2023-04-13T18:28:44.886Z,8.80
2023-04-13T18:31:13.670Z,7.90
2023-04-13T18:33:42.569Z,8.90
2023-04-13T18:36:14.444Z,12.00
2023-04-13T18:38:44.955Z,10.00
2023-04-13T18:41:13.572Z,9.20
2023-04-13T18:43:41.524Z,10.30
2023-04-13T18:46:09.510Z,10.20
2023-04-13T18:48:38.096Z,10.40
2023-04-13T18:51:09.920Z,9.00
2023-04-13T18:53:39.773Z,9.10
2023-04-13T18:56:07.851Z,9.80
2023-04-13T18:58:37.495Z,8.30
2023-04-13T19:01:17.600Z,8.70
2023-04-13T19:03:46.180Z,8.90
2023-04-13T19:06:22.381Z,8.30
2023-04-13T19:08:51.076Z,8.60
2023-04-13T19:11:20.088Z,8.50
2023-04-13T19:13:48.198Z,6.80
2023-04-13T19:16:23.744Z,8.30
2023-04-13T19:18:53.353Z,8.40
2023-04-13T19:21:24.067Z,8.30
2023-04-13T19:23:54.316Z,7.70
2023-04-13T19:26:25.145Z,7.80
2023-04-13T19:28:55.627Z,8.20
2023-04-13T19:31:25.085Z,9.60
2023-04-13T19:33:53.393Z,8.50
2023-04-13T19:36:21.404Z,7.90
2023-04-13T19:38:51.959Z,7.70
2023-04-13T19:41:19.895Z,8.10
2023-04-13T19:43:47.866Z,9.50
2023-04-13T19:46:16.212Z,9.30
2023-04-13T19:48:44.590Z,8.70
2023-04-13T19:51:12.644Z,8.50
2023-04-13T19:53:42.010Z,8.70
2023-04-13T19:56:10.534Z,8.90
2023-04-13T19:58:38.626Z,8.50
2023-04-13T20:01:10.370Z,8.50
2023-04-13T20:03:40.833Z,8.20
2023-04-13T20:06:09.363Z,7.90
2023-04-13T20:08:37.412Z,7.60
2023-04-13T20:11:08.214Z,8.60
2023-04-13T20:13:38.674Z,8.00
2023-04-13T20:16:07.224Z,8.00
2023-04-13T20:18:35.315Z,7.90
2023-04-13T20:21:03.782Z,8.40
2023-04-13T20:23:31.818Z,8.20
2023-04-13T20:26:04.642Z,8.10
2023-04-13T20:28:33.491Z,7.50
2023-04-13T20:31:01.493Z,8.20
2023-04-13T20:33:31.146Z,7.20
2023-04-13T20:35:59.132Z,7.90
2023-04-13T20:38:29.989Z,9.00
2023-04-13T20:40:59.381Z,7.10
2023-04-13T20:43:27.956Z,7.90
2023-04-13T20:51:01.810Z,7.60
2023-04-13T20:53:30.146Z,8.00
2023-04-13T20:55:58.463Z,7.80
2023-04-13T20:58:28.658Z,7.00
2023-04-13T21:00:57.169Z,7.00
2023-04-13T21:03:30.838Z,7.10
2023-04-13T21:05:59.751Z,6.70
2023-04-13T21:08:27.787Z,7.80
2023-04-13T21:10:55.903Z,7.30
2023-04-13T21:13:24.866Z,6.40
2023-04-13T21:15:52.792Z,7.30
2023-04-13T21:18:22.152Z,6.90
2023-04-13T21:20:51.970Z,7.00
2023-04-13T21:23:20.629Z,7.10
2023-04-13T21:25:50.918Z,7.10
2023-04-13T21:28:21.214Z,7.10
2023-04-13T21:30:49.263Z,7.50
2023-04-13T21:33:21.612Z,7.10
2023-04-13T21:35:49.650Z,7.30
2023-04-13T21:40:48.614Z,7.50
2023-04-13T21:43:17.001Z,7.60
2023-04-13T21:45:46.931Z,7.20
2023-04-13T21:48:14.995Z,7.10
2023-04-13T21:50:43.481Z,7.70
2023-04-13T21:53:11.580Z,7.40
2023-04-13T21:55:41.360Z,7.50
2023-04-13T21:58:09.588Z,7.20
2023-04-13T22:00:37.891Z,7.10
2023-04-13T22:03:06.775Z,7.60
2023-04-13T22:05:35.847Z,6.90
2023-04-13T22:08:04.286Z,6.50
2023-04-13T22:10:34.063Z,7.60
2023-04-13T22:13:02.168Z,7.80
2023-04-13T22:15:31.974Z,7.80
2023-04-13T22:18:00.821Z,6.80
2023-04-13T22:20:30.165Z,6.70
2023-04-13T22:22:58.073Z,6.90
2023-04-13T22:25:28.048Z,6.80
2023-04-13T22:27:56.519Z,6.80
2023-04-13T22:32:59.028Z,6.10
2023-04-13T22:35:27.392Z,6.50
2023-04-13T22:37:59.728Z,6.30
2023-04-13T22:40:28.180Z,5.90
2023-04-13T22:42:56.105Z,6.40
2023-04-13T22:45:26.319Z,6.00
2023-04-13T22:47:54.290Z,6.40
2023-04-13T22:50:22.306Z,6.20
2023-04-13T22:52:54.259Z,5.80
2023-04-13T22:55:22.466Z,6.40
2023-04-13T22:57:50.977Z,5.80
2023-04-13T23:00:20.925Z,6.00
2023-04-13T23:02:56.033Z,6.20
2023-04-13T23:05:24.533Z,6.30
2023-04-13T23:07:52.464Z,5.60
2023-04-13T23:10:21.787Z,6.50
2023-04-13T23:12:49.959Z,6.30
2023-04-13T23:15:17.998Z,5.90
2023-04-13T23:17:47.621Z,5.80
2023-04-13T23:20:15.791Z,5.80
2023-04-13T23:22:43.798Z,6.10
2023-04-13T23:25:12.059Z,5.90
2023-04-13T23:27:40.500Z,6.00
2023-04-13T23:30:08.904Z,6.50
2023-04-13T23:32:39.791Z,6.00
2023-04-13T23:35:08.830Z,5.60
2023-04-13T23:37:36.859Z,6.00
2023-04-13T23:40:05.524Z,6.40
2023-04-13T23:42:37.201Z,5.80
2023-04-13T23:45:06.579Z,5.90
2023-04-13T23:47:35.547Z,6.00
2023-04-13T23:50:03.894Z,6.30
2023-04-13T23:52:33.161Z,6.00
2023-04-13T23:55:01.151Z,6.50
2023-04-13T23:57:34.025Z,5.70
